createdAt,value
2019-05-30T00:01:42.025Z,9.48
2019-05-30T00:04:49.428Z,9.50
2019-05-30T00:07:58.257Z,9.53
2019-05-30T00:11:07.245Z,9.44
2019-05-30T00:14:15.066Z,9.40
2019-05-30T00:17:22.822Z,9.51
2019-05-30T00:20:34.219Z,9.52
2019-05-30T00:23:42.634Z,9.56
2019-05-30T00:26:50.488Z,9.49
2019-05-30T00:29:57.789Z,9.62
2019-05-30T00:33:05.340Z,9.61
2019-05-30T00:36:13.394Z,9.60
2019-05-30T00:39:21.475Z,9.50
2019-05-30T00:42:28.964Z,9.63
2019-05-30T00:45:36.960Z,9.80
2019-05-30T00:48:44.565Z,9.54
2019-05-30T00:51:52.221Z,9.53
2019-05-30T00:55:00.663Z,9.54
2019-05-30T00:58:08.462Z,9.54
2019-05-30T01:01:16.218Z,9.51
2019-05-30T01:04:23.532Z,9.47
2019-05-30T01:07:32.156Z,9.49
2019-05-30T01:10:39.722Z,9.58
2019-05-30T01:13:47.289Z,9.47
2019-05-30T01:16:54.901Z,9.54
2019-05-30T01:20:03.399Z,9.49
2019-05-30T01:23:10.897Z,9.44
2019-05-30T01:26:18.552Z,9.41
2019-05-30T01:29:26.148Z,9.42
2019-05-30T01:32:34.021Z,9.38
2019-05-30T01:35:44.396Z,9.47
2019-05-30T01:38:53.214Z,9.42
2019-05-30T01:42:01.850Z,9.39
2019-05-30T01:45:10.272Z,9.32
2019-05-30T01:48:21.329Z,9.31
2019-05-30T01:51:29.157Z,9.31
2019-05-30T01:54:37.749Z,9.18
2019-05-30T01:57:45.250Z,9.18
2019-05-30T02:00:52.854Z,9.10
2019-05-30T02:04:19.105Z,9.00
2019-05-30T02:07:27.211Z,8.96
2019-05-30T02:10:35.525Z,9.01
2019-05-30T02:13:43.296Z,9.00
2019-05-30T02:16:50.723Z,8.83
2019-05-30T02:19:57.942Z,8.69
2019-05-30T02:23:07.332Z,8.65
2019-05-30T02:26:14.986Z,8.50
2019-05-30T02:29:22.388Z,8.57
2019-05-30T02:32:30.135Z,8.36
2019-05-30T02:35:37.522Z,8.29
2019-05-30T02:38:45.046Z,8.19
2019-05-30T02:41:52.433Z,8.00
2019-05-30T02:45:01.397Z,7.98
2019-05-30T02:48:10.383Z,8.03
2019-05-30T02:51:19.311Z,7.94
2019-05-30T02:54:26.897Z,7.87
2019-05-30T02:57:35.407Z,7.82
2019-05-30T03:00:42.930Z,7.74
2019-05-30T03:03:50.332Z,7.73
2019-05-30T03:06:58.084Z,7.63
2019-05-30T03:10:09.238Z,7.61
2019-05-30T03:13:16.845Z,7.72
2019-05-30T03:16:24.841Z,7.52
2019-05-30T03:19:32.946Z,7.46
2019-05-30T03:22:40.697Z,7.37
2019-05-30T03:25:48.224Z,7.35
2019-05-30T03:28:55.690Z,7.31
2019-05-30T03:32:38.756Z,7.39
2019-05-30T03:35:26.800Z,7.48
2019-05-30T03:38:24.349Z,7.50
2019-05-30T03:41:31.858Z,7.32
2019-05-30T03:44:40.126Z,7.34
2019-05-30T03:47:53.867Z,7.66
2019-05-30T03:51:06.199Z,7.66
2019-05-30T03:54:16.769Z,7.79
2019-05-30T03:57:32.791Z,7.61
2019-05-30T04:00:51.363Z,7.52
2019-05-30T04:04:16.803Z,7.52
2019-05-30T04:07:28.746Z,7.55
2019-05-30T04:10:41.463Z,7.67
2019-05-30T04:13:55.294Z,7.83
2019-05-30T04:17:02.700Z,8.01
2019-05-30T04:20:13.793Z,8.33
2019-05-30T04:23:21.306Z,8.60
2019-05-30T04:26:29.315Z,8.87
2019-05-30T04:29:37.201Z,9.10
2019-05-30T04:32:44.903Z,9.16
2019-05-30T04:35:52.609Z,9.32
2019-05-30T04:38:59.923Z,9.57
2019-05-30T04:42:09.277Z,9.66
2019-05-30T04:45:17.913Z,9.80
2019-05-30T04:48:25.990Z,9.80
2019-05-30T04:51:33.406Z,10.05
2019-05-30T04:54:41.785Z,10.22
2019-05-30T04:57:50.116Z,10.54
2019-05-30T05:00:57.536Z,10.88
2019-05-30T05:04:05.914Z,11.04
2019-05-30T05:07:15.553Z,11.14
2019-05-30T05:10:23.688Z,11.36
2019-05-30T05:13:31.852Z,11.36
2019-05-30T05:16:39.905Z,11.40
2019-05-30T05:19:47.879Z,11.76
2019-05-30T05:22:55.463Z,12.08
2019-05-30T05:26:03.364Z,12.33
2019-05-30T05:29:11.668Z,12.46
2019-05-30T05:32:20.395Z,12.37
2019-05-30T05:35:52.979Z,12.26
2019-05-30T05:39:00.689Z,12.24
2019-05-30T05:42:08.548Z,11.80
2019-05-30T05:45:18.259Z,11.80
2019-05-30T05:48:28.869Z,11.84
2019-05-30T05:51:36.331Z,11.98
2019-05-30T05:54:44.215Z,12.61
2019-05-30T05:57:51.950Z,12.55
2019-05-30T06:00:59.528Z,13.36
2019-05-30T06:04:13.047Z,12.90
2019-05-30T06:07:18.116Z,12.92
2019-05-30T06:10:27.884Z,12.65
2019-05-30T06:13:36.044Z,14.57
2019-05-30T06:16:43.807Z,16.58
2019-05-30T06:19:51.718Z,14.95
2019-05-30T06:23:00.178Z,15.09
2019-05-30T06:26:09.559Z,16.05
2019-05-30T06:29:17.962Z,18.90
2019-05-30T06:32:26.747Z,20.10
2019-05-30T06:35:34.349Z,19.33
2019-05-30T06:38:42.136Z,19.52
2019-05-30T06:41:50.507Z,20.32
2019-05-30T06:44:58.426Z,20.93
2019-05-30T06:48:06.112Z,16.35
2019-05-30T06:51:14.608Z,16.96
2019-05-30T06:54:24.226Z,19.29
2019-05-30T06:57:31.776Z,21.16
2019-05-30T07:00:39.458Z,22.78
2019-05-30T07:03:46.941Z,18.26
2019-05-30T07:06:55.352Z,16.84
2019-05-30T07:10:06.684Z,16.42
2019-05-30T07:13:14.256Z,15.80
2019-05-30T07:16:21.776Z,15.19
2019-05-30T07:19:29.614Z,15.95
2019-05-30T07:22:36.892Z,15.86
2019-05-30T07:25:44.345Z,16.37
2019-05-30T07:28:52.501Z,17.52
2019-05-30T07:32:00.811Z,20.14
2019-05-30T07:35:09.703Z,19.36
2019-05-30T07:38:16.898Z,17.78
2019-05-30T07:41:24.688Z,20.35
2019-05-30T07:44:32.855Z,18.34
2019-05-30T07:47:43.822Z,17.62
2019-05-30T07:50:51.412Z,17.81
2019-05-30T07:53:59.117Z,16.33
2019-05-30T07:57:06.596Z,14.73
2019-05-30T08:00:16.441Z,14.12
2019-05-30T08:03:24.048Z,13.92
2019-05-30T08:06:31.589Z,14.06
2019-05-30T08:09:39.775Z,14.69
2019-05-30T08:12:47.160Z,14.70
2019-05-30T08:15:55.138Z,14.85
2019-05-30T08:19:02.937Z,15.33
2019-05-30T08:22:11.491Z,15.49
2019-05-30T08:25:19.435Z,16.38
2019-05-30T08:28:28.661Z,16.07
2019-05-30T08:31:36.921Z,16.75
2019-05-30T08:34:44.550Z,17.50
2019-05-30T08:37:52.289Z,18.89
2019-05-30T08:41:00.684Z,19.38
2019-05-30T08:44:08.269Z,18.90
2019-05-30T08:47:15.862Z,17.22
2019-05-30T08:50:24.024Z,15.37
2019-05-30T08:53:32.657Z,14.83
2019-05-30T08:56:40.666Z,14.53
2019-05-30T08:59:49.268Z,15.27
2019-05-30T09:02:59.219Z,15.02
2019-05-30T09:06:09.781Z,14.65
2019-05-30T09:09:21.197Z,15.08
2019-05-30T09:12:29.398Z,15.90
2019-05-30T09:15:41.085Z,16.08
2019-05-30T09:18:49.854Z,14.99
2019-05-30T09:21:57.616Z,15.80
2019-05-30T09:25:06.576Z,16.36
2019-05-30T09:28:14.891Z,16.58
2019-05-30T09:31:22.460Z,16.82
2019-05-30T09:34:30.955Z,17.07
2019-05-30T09:37:38.728Z,17.75
2019-05-30T09:40:47.756Z,18.15
2019-05-30T09:43:56.123Z,17.38
2019-05-30T09:47:04.199Z,18.92
2019-05-30T09:50:13.581Z,18.11
2019-05-30T09:53:21.706Z,17.22
2019-05-30T09:56:29.873Z,17.23
2019-05-30T09:59:38.099Z,17.40
2019-05-30T10:02:46.755Z,17.54
2019-05-30T10:05:54.409Z,17.09
2019-05-30T10:09:07.075Z,17.22
2019-05-30T10:12:15.048Z,16.89
2019-05-30T10:15:23.275Z,17.28
2019-05-30T10:18:31.235Z,17.54
2019-05-30T10:21:39.104Z,17.94
2019-05-30T10:24:49.137Z,18.40
2019-05-30T10:27:58.672Z,18.08
2019-05-30T10:31:06.348Z,18.51
2019-05-30T10:34:16.297Z,19.07
2019-05-30T10:37:24.110Z,18.61
2019-05-30T10:40:32.421Z,18.65
2019-05-30T10:43:41.062Z,18.04
2019-05-30T10:46:48.966Z,18.30
2019-05-30T10:49:57.966Z,18.84
2019-05-30T10:53:05.529Z,18.92
2019-05-30T10:56:13.406Z,18.80
2019-05-30T10:59:22.528Z,19.90
2019-05-30T11:02:49.397Z,20.33
2019-05-30T11:06:14.183Z,21.06
2019-05-30T11:09:27.883Z,20.36
2019-05-30T11:12:35.466Z,20.56
2019-05-30T11:15:44.253Z,20.81
2019-05-30T11:18:53.124Z,20.55
2019-05-30T11:22:02.350Z,20.12
2019-05-30T11:25:10.683Z,19.53
2019-05-30T11:28:18.188Z,19.47
2019-05-30T11:31:26.367Z,19.93
2019-05-30T11:34:34.906Z,20.15
2019-05-30T11:37:42.727Z,20.62
2019-05-30T11:40:53.445Z,20.81
2019-05-30T11:44:04.140Z,20.40
2019-05-30T11:47:10.488Z,21.35
2019-05-30T11:50:18.260Z,21.01
2019-05-30T11:53:26.041Z,21.35
2019-05-30T11:56:34.634Z,20.06
2019-05-30T11:59:42.320Z,20.45
2019-05-30T12:02:50.331Z,20.99
2019-05-30T12:05:58.680Z,20.44
2019-05-30T12:09:07.457Z,20.17
2019-05-30T12:12:15.466Z,20.61
2019-05-30T12:15:23.158Z,20.52
2019-05-30T12:18:30.684Z,20.88
2019-05-30T12:21:38.647Z,20.52
2019-05-30T12:24:46.385Z,20.77
2019-05-30T12:27:54.200Z,20.77
2019-05-30T12:31:06.290Z,20.95
2019-05-30T12:34:12.188Z,18.91
2019-05-30T12:37:23.500Z,18.61
2019-05-30T12:40:30.161Z,18.60
2019-05-30T12:43:37.660Z,18.17
2019-05-30T12:46:45.518Z,18.01
2019-05-30T12:49:53.609Z,17.53
2019-05-30T12:53:02.150Z,17.31
2019-05-30T12:56:10.364Z,17.12
2019-05-30T12:59:17.873Z,16.98
2019-05-30T13:02:25.621Z,17.14
2019-05-30T13:05:33.588Z,16.91
2019-05-30T13:08:44.850Z,16.70
2019-05-30T13:11:54.273Z,16.95
2019-05-30T13:15:03.854Z,17.06
2019-05-30T13:18:11.272Z,17.48
2019-05-30T13:21:19.446Z,17.65
2019-05-30T13:24:26.854Z,18.22
2019-05-30T13:27:34.400Z,18.32
2019-05-30T13:30:41.984Z,18.67
2019-05-30T13:33:49.858Z,19.05
2019-05-30T13:36:58.818Z,19.06
2019-05-30T13:40:24.443Z,18.88
2019-05-30T13:43:19.689Z,18.60
2019-05-30T13:46:27.656Z,18.66
2019-05-30T13:49:35.932Z,19.12
2019-05-30T13:52:43.541Z,19.49
2019-05-30T13:55:51.037Z,19.58
2019-05-30T13:58:59.664Z,19.89
2019-05-30T14:02:11.111Z,20.04
2019-05-30T14:05:21.146Z,19.60
2019-05-30T14:08:41.177Z,19.85
2019-05-30T14:11:40.258Z,20.15
2019-05-30T14:14:48.473Z,20.96
2019-05-30T14:17:58.723Z,19.50
2019-05-30T14:21:07.478Z,19.10
2019-05-30T14:24:17.426Z,19.49
2019-05-30T14:27:29.199Z,19.58
2019-05-30T14:30:34.351Z,19.49
2019-05-30T14:33:42.014Z,19.59
2019-05-30T14:36:49.570Z,18.74
2019-05-30T14:39:58.164Z,18.81
2019-05-30T14:43:05.474Z,18.98
2019-05-30T14:46:13.748Z,18.95
2019-05-30T14:49:21.494Z,19.27
2019-05-30T14:52:29.803Z,19.52
2019-05-30T14:55:38.116Z,19.59
2019-05-30T14:58:46.520Z,19.69
2019-05-30T15:01:53.907Z,19.52
2019-05-30T15:05:01.413Z,19.90
2019-05-30T15:08:08.774Z,19.79
2019-05-30T15:11:16.680Z,19.65
2019-05-30T15:14:24.017Z,19.45
2019-05-30T15:17:31.733Z,19.59
2019-05-30T15:20:39.249Z,19.50
2019-05-30T15:23:47.941Z,19.10
2019-05-30T15:26:55.963Z,19.01
2019-05-30T15:30:04.402Z,19.04
2019-05-30T15:33:12.682Z,19.01
2019-05-30T15:36:20.264Z,18.38
2019-05-30T15:39:32.710Z,18.57
2019-05-30T15:42:38.219Z,19.00
2019-05-30T15:45:46.037Z,18.98
2019-05-30T15:48:53.605Z,18.79
2019-05-30T15:52:01.851Z,18.64
2019-05-30T15:55:11.186Z,18.49
2019-05-30T15:58:20.500Z,18.26
2019-05-30T16:01:28.246Z,18.29
2019-05-30T16:04:36.028Z,18.11
2019-05-30T16:07:44.288Z,17.82
2019-05-30T16:10:51.863Z,17.69
2019-05-30T16:13:59.331Z,17.87
2019-05-30T16:17:06.979Z,17.89
2019-05-30T16:20:16.054Z,17.84
2019-05-30T16:23:23.418Z,17.96
2019-05-30T16:26:31.157Z,17.94
2019-05-30T16:29:38.947Z,17.86
2019-05-30T16:32:46.561Z,18.10
2019-05-30T16:35:54.380Z,18.18
2019-05-30T16:39:04.202Z,18.41
2019-05-30T16:42:12.764Z,18.54
2019-05-30T16:45:25.186Z,17.99
2019-05-30T16:48:33.544Z,17.58
2019-05-30T16:51:41.139Z,17.48
2019-05-30T16:54:48.899Z,17.34
2019-05-30T16:57:57.047Z,17.22
2019-05-30T17:01:05.415Z,17.41
2019-05-30T17:04:13.018Z,18.47
2019-05-30T17:07:21.478Z,19.74
2019-05-30T17:10:33.093Z,20.07
2019-05-30T17:13:39.005Z,19.89
2019-05-30T17:16:46.831Z,20.14
2019-05-30T17:19:54.921Z,19.92
2019-05-30T17:23:02.803Z,21.47
2019-05-30T17:26:10.726Z,21.56
2019-05-30T17:29:19.468Z,20.12
2019-05-30T17:32:28.006Z,19.46
2019-05-30T17:35:36.465Z,20.01
2019-05-30T17:38:43.961Z,19.24
2019-05-30T17:41:52.086Z,18.79
2019-05-30T17:44:59.548Z,18.37
2019-05-30T17:48:16.129Z,18.40
2019-05-30T17:51:17.221Z,18.41
2019-05-30T17:54:26.000Z,18.30
2019-05-30T17:57:34.014Z,18.03
2019-05-30T18:00:41.408Z,17.72
2019-05-30T18:03:49.276Z,17.38
2019-05-30T18:06:57.066Z,17.10
2019-05-30T18:10:05.787Z,16.72
2019-05-30T18:13:13.685Z,16.37
2019-05-30T18:16:22.970Z,16.08
2019-05-30T18:19:31.529Z,15.86
2019-05-30T18:22:39.506Z,15.63
2019-05-30T18:25:47.982Z,15.58
2019-05-30T18:28:56.031Z,15.32
2019-05-30T18:32:03.632Z,15.16
2019-05-30T18:35:13.902Z,14.99
2019-05-30T18:38:22.466Z,14.83
2019-05-30T18:41:30.917Z,14.72
2019-05-30T18:44:39.431Z,14.47
2019-05-30T18:47:47.929Z,14.33
2019-05-30T18:50:56.133Z,14.15
2019-05-30T18:54:03.973Z,14.03
2019-05-30T18:57:11.781Z,13.79
2019-05-30T19:00:19.364Z,13.70
2019-05-30T19:03:28.495Z,13.63
2019-05-30T19:06:36.433Z,13.50
2019-05-30T19:09:44.154Z,13.43
2019-05-30T19:12:51.885Z,13.36
2019-05-30T19:16:00.204Z,13.36
2019-05-30T19:19:07.689Z,13.13
2019-05-30T19:22:15.009Z,13.03
2019-05-30T19:25:22.490Z,12.96
2019-05-30T19:28:30.526Z,12.83
2019-05-30T19:31:38.211Z,12.76
2019-05-30T19:34:45.796Z,12.62
2019-05-30T19:37:54.173Z,12.53
2019-05-30T19:41:02.211Z,12.45
2019-05-30T19:44:09.741Z,12.44
2019-05-30T19:47:17.404Z,12.34
2019-05-30T19:50:24.939Z,12.35
2019-05-30T19:53:33.215Z,12.14
2019-05-30T19:56:42.064Z,12.09
2019-05-30T19:59:49.819Z,12.01
2019-05-30T20:02:57.985Z,11.99
2019-05-30T20:06:05.772Z,11.98
2019-05-30T20:09:13.437Z,11.97
2019-05-30T20:12:23.437Z,11.95
2019-05-30T20:15:31.361Z,11.87
2019-05-30T20:18:44.062Z,11.76
2019-05-30T20:21:54.886Z,11.71
2019-05-30T20:25:06.158Z,11.70
2019-05-30T20:28:14.303Z,11.57
2019-05-30T20:31:21.873Z,11.46
2019-05-30T20:34:29.674Z,11.29
2019-05-30T20:37:38.635Z,11.16
2019-05-30T20:40:47.158Z,11.05
2019-05-30T20:43:54.678Z,11.01
2019-05-30T20:47:02.594Z,10.93
2019-05-30T20:50:12.869Z,10.88
2019-05-30T20:53:20.684Z,10.80
2019-05-30T20:56:29.619Z,10.84
2019-05-30T20:59:38.513Z,10.84
2019-05-30T21:02:47.138Z,11.00
2019-05-30T21:05:56.815Z,11.02
2019-05-30T21:09:06.282Z,11.08
2019-05-30T21:12:15.319Z,11.05
2019-05-30T21:15:24.788Z,11.01
2019-05-30T21:18:35.666Z,10.98
2019-05-30T21:21:44.282Z,10.91
2019-05-30T21:24:53.708Z,10.86
2019-05-30T21:28:03.475Z,10.92
2019-05-30T21:31:11.525Z,10.89
2019-05-30T21:34:19.817Z,10.81
2019-05-30T21:37:28.369Z,10.75
2019-05-30T21:40:35.814Z,10.66
2019-05-30T21:43:44.491Z,10.61
2019-05-30T21:46:53.090Z,10.48
2019-05-30T21:50:03.298Z,10.43
2019-05-30T21:53:11.764Z,10.30
2019-05-30T21:56:19.177Z,10.19
2019-05-30T21:59:27.757Z,10.14
2019-05-30T22:02:35.765Z,10.09
2019-05-30T22:05:43.242Z,10.06
2019-05-30T22:08:51.588Z,9.98
2019-05-30T22:11:59.121Z,9.96
2019-05-30T22:15:07.241Z,9.97
2019-05-30T22:18:15.040Z,9.91
2019-05-30T22:24:31.251Z,9.83
2019-05-30T22:27:39.060Z,9.78
2019-05-30T22:30:46.408Z,9.74
2019-05-30T22:33:54.254Z,9.61
2019-05-30T22:37:02.459Z,9.59
2019-05-30T22:40:10.101Z,9.55
2019-05-30T22:43:25.166Z,9.50
2019-05-30T22:46:26.541Z,9.48
2019-05-30T22:49:33.855Z,9.53
2019-05-30T22:52:41.144Z,9.55
2019-05-30T22:55:49.124Z,9.57
2019-05-30T22:58:56.533Z,9.52
2019-05-30T23:02:04.018Z,9.54
2019-05-30T23:05:11.637Z,9.56
2019-05-30T23:08:19.071Z,9.58
2019-05-30T23:11:26.664Z,9.67
2019-05-30T23:14:34.188Z,9.79
2019-05-30T23:17:41.672Z,9.84
2019-05-30T23:20:48.997Z,9.91
2019-05-30T23:23:57.307Z,10.06
2019-05-30T23:27:08.115Z,10.18
2019-05-30T23:30:14.363Z,10.19
2019-05-30T23:33:21.874Z,10.29
2019-05-30T23:36:29.632Z,10.25
2019-05-30T23:39:37.308Z,10.32
2019-05-30T23:42:44.504Z,10.27
2019-05-30T23:45:51.793Z,10.27
2019-05-30T23:48:59.897Z,10.30
2019-05-30T23:52:07.443Z,10.37
2019-05-30T23:55:15.309Z,10.35
2019-05-30T23:58:22.897Z,10.36
